Latest Weather Observations for Palmerville

IDQ60801

Issued at 7:32 pm EST Thursday 21 February 2019 (issued every 10 minutes, with the page automatically refreshed every 10 minutes)

About weather observations | Map of weather stations | Latest weather observations for QLD | Other Formats
Station Details ID: 028004 Name: PALMERVILLE Lat: -16.00 Lon: 144.08 Height: 203.8 m
Data from the previous 72 hours. | See also: Recent months at Palmerville
Date/Time
EST
Temp
°C
App
Temp
°C
Dew
Point
°C
Rel
Hum
%
Delta-T
°C
Wind Press
QNH
hPa
Press
MSL
hPa
Rain since
9am
mm
Dir  Spd
km/h
Gust
km/h
Spd
kts
Gust
kts
21/07:30pm 29.3 35.0 23.7 72 3.9 CALM 0 0 0 0 1006.3 1004.9 0.0
21/07:00pm 31.1 35.6 23.0 62 5.6 WSW 4 7 2 4 1006.0 1004.6 0.0
21/06:30pm 32.8 37.0 23.4 57 6.6 W 7 13 4 7 1005.6 1004.2 0.0
21/06:00pm 33.6 37.0 22.7 53 7.6 W 9 15 5 8 1005.6 1004.2 0.0
21/05:30pm 34.0 37.0 22.7 51 7.8 W 11 17 6 9 1005.4 1004.0 0.0
21/05:00pm 34.4 38.0 23.7 53 7.5 SW 11 19 6 10 1005.5 1004.1 0.0
21/04:30pm 34.4 37.3 23.1 51 7.9 W 13 20 7 11 1005.6 1004.2 0.0
21/04:00pm 34.4 37.3 23.1 51 7.9 WSW 13 19 7 10 1005.9 1004.5 0.0
21/03:30pm 33.8 37.6 24.1 57 6.8 WSW 11 15 6 8 1006.3 1004.9 0.0
21/03:00pm 34.0 37.9 24.8 58 6.6 W 13 19 7 10 1006.6 1005.2 0.0
21/02:30pm 34.1 38.1 24.4 57 6.9 WSW 11 20 6 11 1006.9 1005.5 0.0
21/02:00pm 33.5 35.8 23.5 55 7.0 WSW 17 24 9 13 1007.4 1006.0 0.0
21/01:30pm 33.6 38.0 25.0 60 6.1 WSW 11 17 6 9 1008.0 1006.5 0.0
21/01:00pm 33.0 36.7 23.9 59 6.4 WSW 11 19 6 10 1008.8 1007.3 0.0
21/12:30pm 32.9 37.2 24.9 63 5.7 SSW 11 17 6 9 1009.3 1007.9 0.0
21/12:00pm 32.5 35.8 24.5 62 5.7 SSW 15 20 8 11 1009.9 1008.5 0.0
21/11:30am 31.6 35.0 24.0 64 5.3 SSW 13 20 7 11 1010.4 1009.0 0.0
21/11:00am 31.2 33.8 23.3 63 5.5 SW 15 22 8 12 1010.9 1009.5 0.0
21/10:30am 30.6 34.1 23.5 66 4.9 SW 11 17 6 9 1011.0 1009.6 0.0
21/10:00am 29.6 31.8 23.3 69 4.4 SW 17 24 9 13 1011.2 1009.8 0.0
21/09:30am 28.8 31.7 23.2 71 3.9 SW 13 22 7 12 1011.1 1009.7 0.0
21/09:00am 27.9 31.0 23.5 77 3.0 SW 13 20 7 11 1011.1 1009.7 0.0
21/08:30am 26.9 30.6 24.5 87 1.7 SW 13 17 7 9 1011.3 1009.9 0.0
21/08:00am 26.3 31.4 25.6 96 0.5 SSW 9 13 5 7 1011.2 1009.8 0.0
21/07:30am 25.5 31.5 25.5 100 0.0 SSW 4 7 2 4 1010.7 1009.3 0.0
21/07:00am 24.9 31.3 24.9 100 0.0 CALM 0 0 0 0 1010.4 1009.0 0.0
21/06:30am 24.4 30.5 24.4 100 0.0 CALM 0 0 0 0 1009.9 1008.5 0.0
21/06:00am 24.3 30.3 24.3 100 0.0 CALM 0 0 0 0 1009.5 1008.1 0.0
21/05:30am 24.1 30.0 24.1 100 0.0 CALM 0 0 0 0 1009.1 1007.7 0.0
21/05:00am 24.1 30.0 24.1 100 0.0 CALM 0 0 0 0 1009.1 1007.7 0.0
21/04:30am 24.1 30.0 24.1 100 0.0 CALM 0 4 0 2 1008.6 1007.1 0.0
21/04:00am 24.4 30.5 24.4 100 0.0 CALM 0 4 0 2 1008.4 1006.9 0.0
21/03:30am 24.5 30.3 24.5 100 0.0 SSW 2 7 1 4 1008.4 1006.9 0.0
21/03:00am 24.7 29.8 24.7 100 0.0 SW 6 9 3 5 1008.3 1006.8 0.0
21/02:30am 24.9 31.3 24.9 100 0.0 CALM 0 0 0 0 1008.3 1006.8 0.0
21/02:00am 25.1 31.2 25.1 100 0.0 NW 2 6 1 3 1008.5 1007.0 0.0
21/01:30am 24.9 30.9 24.2 96 0.5 CALM 0 0 0 0 1008.7 1007.2 0.0
21/01:00am 25.3 31.8 25.0 98 0.2 CALM 0 0 0 0 1009.0 1007.6 0.0
21/12:30am 25.3 31.6 24.8 97 0.3 CALM 0 0 0 0 1009.3 1007.9 0.0
21/12:00am 25.5 32.1 25.2 98 0.2 CALM 0 0 0 0 1009.4 1008.0 0.0
 
Date/Time
EST
Temp
°C
App
Temp
°C
Dew
Point
°C
Rel
Hum
%
Delta-T
°C
Wind Press
QNH
hPa
Press
MSL
hPa
Rain since
9am
mm
Dir  Spd
km/h
Gust
km/h
Spd
kts
Gust
kts
20/11:30pm 25.6 32.3 25.4 99 0.1 CALM 0 0 0 0 1009.8 1008.4 0.0
20/11:00pm 25.8 32.6 25.5 98 0.2 CALM 0 0 0 0 1010.0 1008.6 0.0
20/10:30pm 25.8 32.8 25.8 100 0.0 CALM 0 0 0 0 1010.1 1008.7 0.0
20/10:00pm 25.9 32.6 25.4 97 0.4 CALM 0 0 0 0 1010.0 1008.6 0.0
20/09:30pm 26.4 33.4 25.9 97 0.4 CALM 0 6 0 3 1009.8 1008.4 0.0
20/09:00pm 26.5 32.8 24.7 90 1.3 CALM 0 0 0 0 1009.5 1008.1 0.0
20/08:30pm 26.9 32.9 24.2 85 1.9 CALM 0 0 0 0 1009.1 1007.7 0.0
20/08:00pm 27.4 33.4 24.3 83 2.2 CALM 0 0 0 0 1008.8 1007.3 0.0
20/07:30pm 28.3 34.1 23.9 77 3.1 CALM 0 0 0 0 1008.5 1007.0 0.0
20/07:00pm 29.8 35.4 23.5 69 4.4 CALM 0 0 0 0 1008.3 1006.8 0.0
20/06:30pm 31.7 35.6 23.0 60 6.0 SW 7 11 4 6 1008.1 1006.6 0.0
20/06:00pm 32.5 35.7 22.3 55 7.0 WSW 9 17 5 9 1007.9 1006.4 0.0
20/05:30pm 32.7 35.3 21.9 53 7.4 SW 11 22 6 12 1007.7 1006.3 0.0
20/05:00pm 32.9 35.2 22.0 52 7.5 SW 13 19 7 10 1007.5 1006.1 0.0
20/04:30pm 33.6 36.9 23.9 57 6.8 SW 13 26 7 14 1007.6 1006.2 0.0
20/04:00pm 33.3 35.9 22.7 53 7.4 WSW 13 19 7 10 1007.6 1006.2 0.0
20/03:30pm 33.2 36.1 23.2 55 7.0 SSW 13 22 7 12 1008.0 1006.5 0.0
20/03:00pm 33.0 36.4 24.7 61 5.9 SSW 15 22 8 12 1008.3 1006.8 0.0
20/02:30pm 32.0 35.1 24.1 63 5.5 SSW 15 22 8 12 1008.7 1007.2 0.0
20/02:00pm 32.2 34.2 22.9 58 6.4 SW 17 26 9 14 1009.3 1007.9 0.0
20/01:30pm 32.2 34.2 22.3 56 6.8 SW 15 26 8 14 1009.6 1008.2 0.0
20/01:00pm 31.6 33.2 21.5 55 6.9 SSW 15 28 8 15 1010.0 1008.6 0.0
20/12:30pm 31.9 34.9 22.6 58 6.4 SW 11 17 6 9 1010.5 1009.1 0.0
20/12:00pm 30.3 33.0 21.4 59 6.0 SW 9 15 5 8 1010.9 1009.5 0.0
20/11:30am 30.9 33.3 22.2 59 6.0 SW 13 20 7 11 1011.3 1009.9 0.0
20/11:00am 29.1 32.6 22.8 69 4.3 SW 9 15 5 8 1011.4 1010.0 0.0
20/10:30am 28.2 31.8 22.0 69 4.2 W 6 11 3 6 1011.5 1010.1 0.0
20/10:00am 27.4 31.0 22.1 73 3.6 SSW 6 9 3 5 1011.7 1010.3 0.0
20/09:30am 26.5 30.2 22.3 78 2.8 SE 6 9 3 5 1011.8 1010.4 0.0
20/09:00am 25.6 29.5 22.5 83 2.1 SSE 6 9 3 5 1011.6 1010.2 34.8
20/08:30am 24.8 28.4 22.1 85 1.8 S 6 7 3 4 1011.3 1009.9 34.8
20/08:00am 24.8 29.0 23.4 92 1.0 ESE 7 9 4 5 1011.3 1009.9 34.8
20/07:30am 23.3 27.6 23.3 100 0.0 SSE 6 7 3 4 1011.0 1009.6 34.8
20/07:00am 22.4 26.2 22.4 100 0.0 E 6 9 3 5 1010.5 1009.1 34.8
20/06:30am 22.1 26.5 22.1 100 0.0 ENE 2 7 1 4 1010.3 1008.9 34.8
20/06:00am 22.2 26.3 22.2 100 0.0 N 4 7 2 4 1010.2 1008.8 34.8
20/05:30am 22.2 26.7 22.2 100 0.0 N 2 7 1 4 1010.5 1009.1 34.8
20/05:00am 22.1 26.5 22.1 100 0.0 SSW 2 7 1 4 1010.7 1009.3 34.8
20/04:30am 22.1 25.6 22.1 100 0.0 SSW 7 11 4 6 1011.0 1009.6 34.8
20/04:00am 22.0 26.0 22.0 100 0.0 W 4 7 2 4 1010.6 1009.2 34.8
20/03:30am 21.9 25.4 21.9 100 0.0 W 6 7 3 4 1010.7 1009.3 34.8
20/03:00am 21.9 25.4 21.9 100 0.0 WNW 6 9 3 5 1011.1 1009.7 34.8
20/02:30am 21.9 25.2 21.9 100 0.0 N 7 11 4 6 1011.2 1009.8 34.8
20/02:00am 22.0 25.6 22.0 100 0.0 NNW 6 9 3 5 1011.6 1010.2 34.2
20/01:30am 22.0 26.3 22.0 100 0.0 WNW 2 6 1 3 1012.2 1010.8 32.8
20/01:00am 22.2 25.3 22.2 100 0.0 WNW 9 11 5 6 1012.4 1011.0 31.6
20/12:30am 22.3 25.5 22.3 100 0.0 WNW 9 15 5 8 1013.2 1011.7 31.2
20/12:00am 22.1 25.6 22.1 100 0.0 WNW 7 11 4 6 1013.3 1011.8 30.8
 
Date/Time
EST
Temp
°C
App
Temp
°C
Dew
Point
°C
Rel
Hum
%
Delta-T
°C
Wind Press
QNH
hPa
Press
MSL
hPa
Rain since
9am
mm
Dir  Spd
km/h
Gust
km/h
Spd
kts
Gust
kts
19/11:30pm 22.8 25.9 22.8 100 0.0 NW 11 17 6 9 1013.6 1012.2 20.6
19/11:00pm 23.1 26.0 23.1 100 0.0 SE 13 19 7 10 1013.3 1011.8 12.6
19/10:30pm 25.3 27.2 21.4 79 2.6 ENE 13 33 7 18 1012.8 1011.4 0.2
19/10:00pm 25.5 28.7 21.6 79 2.6 ENE 7 13 4 7 1011.5 1010.1 0.2
19/09:30pm 24.7 28.0 21.4 82 2.2 E 6 11 3 6 1011.5 1010.1 0.2
19/09:00pm 24.9 27.8 20.6 77 2.8 NW 6 11 3 6 1011.1 1009.7 0.2
19/08:30pm 25.2 28.6 20.9 77 2.8 NNW 4 9 2 5 1010.3 1008.9 0.2
19/08:00pm 25.5 28.9 21.6 79 2.6 NNW 6 9 3 5 1009.2 1007.8 0.2
19/07:30pm 25.7 29.2 21.8 79 2.6 NNW 6 11 3 6 1009.4 1008.0 0.2
19/07:00pm 26.0 29.6 22.3 80 2.5 NNW 7 13 4 7 1008.9 1007.4 0.0
19/06:30pm 26.2 29.1 21.8 77 3.0 WNW 9 13 5 7 1008.6 1007.1 0.0
19/06:00pm 26.5 29.7 21.7 75 3.2 NNW 7 15 4 8 1008.0 1006.5 0.0
19/05:30pm 26.8 31.0 23.5 82 2.3 SSW 7 9 4 5 1008.0 1006.5 0.0
19/05:00pm 28.5 30.4 21.3 65 4.8 WSW 13 26 7 14 1007.7 1006.3 0.0
19/04:30pm 33.6 37.9 24.2 58 6.6 SW 9 17 5 9 1007.1 1005.7 0.0
19/04:00pm 33.2 35.8 22.6 53 7.3 WSW 13 20 7 11 1007.2 1005.8 0.0
19/03:30pm 33.2 36.9 23.2 55 7.0 SW 9 20 5 11 1007.6 1006.2 0.0
19/03:00pm 33.2 37.8 24.7 61 6.0 WSW 9 15 5 8 1008.1 1006.6 0.0
19/02:30pm 32.6 37.2 24.1 61 6.0 SW 7 17 4 9 1008.5 1007.0 0.0
19/02:00pm 32.9 37.2 24.9 63 5.7 WSW 11 17 6 9 1008.9 1007.4 0.0
19/01:30pm 31.6 34.5 23.2 61 5.8 W 13 20 7 11 1009.3 1007.9 0.0
19/01:00pm 31.4 35.3 24.3 66 5.0 SW 11 17 6 9 1009.9 1008.5 0.0
19/12:30pm 31.2 35.1 23.0 61 5.7 SSW 7 11 4 6 1010.5 1009.1 0.0
19/12:00pm 30.8 36.4 24.2 68 4.6 SSW 2 7 1 4 1011.1 1009.7 0.0
19/11:30am 29.1 33.1 23.1 70 4.1 W 7 11 4 6 1011.5 1010.1 0.0
19/11:00am 28.2 32.1 22.9 73 3.6 NW 7 11 4 6 1011.8 1010.4 0.0
19/10:30am 27.8 32.2 23.4 77 3.0 W 6 11 3 6 1012.1 1010.7 0.0
19/10:00am 27.4 31.5 23.2 78 2.9 W 7 11 4 6 1012.1 1010.7 0.0
19/09:30am 26.9 31.3 23.4 81 2.4 NW 6 7 3 4 1012.0 1010.6 0.0
19/09:00am 25.8 30.6 24.2 91 1.1 NNW 6 9 3 5 1011.9 1010.5 0.2
19/08:30am 25.3 30.5 24.8 97 0.3 NNW 6 7 3 4 1012.0 1010.6 0.2
19/08:00am 24.8 31.1 24.8 100 0.0 CALM 0 0 0 0 1012.2 1010.8 0.2
19/07:30am 24.5 30.6 24.5 100 0.0 CALM 0 0 0 0 1011.9 1010.5 0.2
19/07:00am 24.0 29.8 24.0 100 0.0 CALM 0 6 0 3 1011.6 1010.2 0.2
19/06:30am 23.6 29.2 23.6 100 0.0 CALM 0 4 0 2 1011.4 1010.0 0.2
19/06:00am 23.7 29.4 23.7 100 0.0 CALM 0 4 0 2 1011.3 1009.9 0.2
19/05:30am 23.9 29.3 23.9 100 0.0 SSW 2 7 1 4 1011.3 1009.9 0.2
19/05:00am 23.9 28.4 23.9 100 0.0 S 7 7 4 4 1011.4 1010.0 0.2
19/04:30am 24.0 29.8 24.0 100 0.0 CALM 0 0 0 0 1010.9 1009.5 0.2
19/04:00am 24.1 30.0 24.1 100 0.0 CALM 0 0 0 0 1010.5 1009.1 0.2
19/03:30am 24.3 29.2 24.3 100 0.0 NNE 6 7 3 4 1010.4 1009.0 0.2
19/03:00am 24.4 29.2 24.2 99 0.1 NW 6 7 3 4 1010.5 1009.1 0.2
19/02:30am 24.4 29.6 23.5 95 0.6 NW 2 9 1 5 1010.5 1009.1 0.2
19/02:00am 24.8 30.5 23.8 94 0.7 CALM 0 0 0 0 1010.7 1009.3 0.2
19/01:30am 25.0 30.1 24.0 94 0.7 SE 4 7 2 4 1011.5 1010.1 0.2
19/01:00am 24.7 29.9 23.5 93 0.8 S 2 6 1 3 1011.8 1010.4 0.2
19/12:30am 25.2 29.9 23.3 89 1.3 NW 4 7 2 4 1011.8 1010.4 0.2
19/12:00am 25.4 29.7 23.3 88 1.4 W 6 7 3 4 1011.9 1010.5 0.2
 
Date/Time
EST
Temp
°C
App
Temp
°C
Dew
Point
°C
Rel
Hum
%
Delta-T
°C
Wind Press
QNH
hPa
Press
MSL
hPa
Rain since
9am
mm
Dir  Spd
km/h
Gust
km/h
Spd
kts
Gust
kts
18/11:30pm 25.8 30.3 23.7 88 1.4 NW 6 9 3 5 1012.0 1010.6 0.2
18/11:00pm 26.0 30.2 23.5 86 1.7 WNW 7 11 4 6 1011.8 1010.4 0.2
18/10:30pm 26.5 31.0 23.6 84 2.0 NW 6 7 3 4 1011.9 1010.5 0.2
18/10:00pm 26.8 31.3 23.7 83 2.1 NW 6 7 3 4 1011.6 1010.2 0.2
18/09:30pm 26.7 31.6 23.6 83 2.1 NNW 4 9 2 5 1011.0 1009.6 0.2
18/09:00pm 26.9 31.4 23.6 82 2.3 NW 6 11 3 6 1010.6 1009.2 0.2
18/08:30pm 26.3 31.7 23.2 83 2.1 CALM 0 0 0 0 1009.9 1008.5 0.2
18/08:00pm 26.8 32.5 23.7 83 2.1 CALM 0 0 0 0 1009.8 1008.4 0.2

Other formats

Comma delimited format used in spreadsheet applications
http://www.bom.gov.au/fwo/IDQ60801/IDQ60801.94276.axf

JavaScript Object Notation format (JSON) in row-major order
http://www.bom.gov.au/fwo/IDQ60801/IDQ60801.94276.json

Data quality

Most of these data are generated automatically and are frequently updated. Quality checks on data are not normally performed. It is possible for incorrect values to appear. Refer to information at About Latest Weather Observations and please check the disclaimer before using these data.